sensor_id;sensor_type;location;lat;lon;timestamp;temperature;humidity
16271;DHT22;8243;49.048;8.396;2023-07-24T00:01:02;20.20;63.80
16271;DHT22;8243;49.048;8.396;2023-07-24T00:03:28;20.10;69.90
16271;DHT22;8243;49.048;8.396;2023-07-24T00:05:53;20.10;71.30
16271;DHT22;8243;49.048;8.396;2023-07-24T00:08:22;20.00;75.50
16271;DHT22;8243;49.048;8.396;2023-07-24T00:10:48;19.80;84.10
16271;DHT22;8243;49.048;8.396;2023-07-24T00:13:13;19.70;89.10
16271;DHT22;8243;49.048;8.396;2023-07-24T00:15:39;19.60;93.10
16271;DHT22;8243;49.048;8.396;2023-07-24T00:18:05;19.40;96.00
16271;DHT22;8243;49.048;8.396;2023-07-24T00:20:30;19.20;99.90
16271;DHT22;8243;49.048;8.396;2023-07-24T00:22:56;19.20;99.90
16271;DHT22;8243;49.048;8.396;2023-07-24T00:25:21;19.20;99.90
16271;DHT22;8243;49.048;8.396;2023-07-24T00:27:47;19.10;99.90
16271;DHT22;8243;49.048;8.396;2023-07-24T00:30:12;19.10;99.90
16271;DHT22;8243;49.048;8.396;2023-07-24T00:32:38;19.00;99.90
16271;DHT22;8243;49.048;8.396;2023-07-24T00:35:04;18.90;99.90
16271;DHT22;8243;49.048;8.396;2023-07-24T00:37:30;18.90;99.90
16271;DHT22;8243;49.048;8.396;2023-07-24T00:39:55;18.80;99.90
16271;DHT22;8243;49.048;8.396;2023-07-24T00:42:21;18.80;99.90
16271;DHT22;8243;49.048;8.396;2023-07-24T00:44:47;18.80;99.90
16271;DHT22;8243;49.048;8.396;2023-07-24T00:47:12;18.80;99.90
16271;DHT22;8243;49.048;8.396;2023-07-24T00:49:38;18.80;99.90
16271;DHT22;8243;49.048;8.396;2023-07-24T00:52:04;18.80;99.90
16271;DHT22;8243;49.048;8.396;2023-07-24T00:54:31;18.70;99.90
16271;DHT22;8243;49.048;8.396;2023-07-24T00:56:58;18.70;99.90
16271;DHT22;8243;49.048;8.396;2023-07-24T00:59:23;18.60;99.90
16271;DHT22;8243;49.048;8.396;2023-07-24T01:01:49;18.60;99.90
16271;DHT22;8243;49.048;8.396;2023-07-24T01:04:15;18.60;99.90
16271;DHT22;8243;49.048;8.396;2023-07-24T01:06:41;18.60;99.90
16271;DHT22;8243;49.048;8.396;2023-07-24T01:09:06;18.60;99.90
16271;DHT22;8243;49.048;8.396;2023-07-24T01:11:46;18.30;99.90
16271;DHT22;8243;49.048;8.396;2023-07-24T01:14:24;18.30;99.90
16271;DHT22;8243;49.048;8.396;2023-07-24T01:16:54;18.30;99.90
16271;DHT22;8243;49.048;8.396;2023-07-24T01:22:14;18.30;99.90
16271;DHT22;8243;49.048;8.396;2023-07-24T01:27:17;18.30;99.90
16271;DHT22;8243;49.048;8.396;2023-07-24T01:29:43;18.30;99.90
16271;DHT22;8243;49.048;8.396;2023-07-24T01:32:09;18.30;99.90
16271;DHT22;8243;49.048;8.396;2023-07-24T01:34:34;18.30;99.90
16271;DHT22;8243;49.048;8.396;2023-07-24T01:37:00;18.20;99.90
16271;DHT22;8243;49.048;8.396;2023-07-24T01:39:28;18.20;99.90
16271;DHT22;8243;49.048;8.396;2023-07-24T01:41:53;18.20;99.90
16271;DHT22;8243;49.048;8.396;2023-07-24T01:44:19;18.20;99.90
16271;DHT22;8243;49.048;8.396;2023-07-24T01:46:45;18.20;99.90
16271;DHT22;8243;49.048;8.396;2023-07-24T01:49:10;18.30;99.90
16271;DHT22;8243;49.048;8.396;2023-07-24T01:51:36;18.30;99.90
16271;DHT22;8243;49.048;8.396;2023-07-24T01:54:01;18.40;99.90
16271;DHT22;8243;49.048;8.396;2023-07-24T01:56:27;18.40;99.90
16271;DHT22;8243;49.048;8.396;2023-07-24T01:58:52;18.50;99.90
16271;DHT22;8243;49.048;8.396;2023-07-24T02:01:18;18.40;99.90
16271;DHT22;8243;49.048;8.396;2023-07-24T02:03:43;18.50;99.90
16271;DHT22;8243;49.048;8.396;2023-07-24T02:06:09;18.50;99.90
16271;DHT22;8243;49.048;8.396;2023-07-24T02:08:34;18.50;99.90
16271;DHT22;8243;49.048;8.396;2023-07-24T02:11:00;18.40;99.90
16271;DHT22;8243;49.048;8.396;2023-07-24T02:13:25;18.40;99.90
16271;DHT22;8243;49.048;8.396;2023-07-24T02:15:51;18.40;99.90
16271;DHT22;8243;49.048;8.396;2023-07-24T02:18:19;18.40;99.90
16271;DHT22;8243;49.048;8.396;2023-07-24T02:20:51;18.40;99.90
16271;DHT22;8243;49.048;8.396;2023-07-24T02:23:22;18.30;99.90
16271;DHT22;8243;49.048;8.396;2023-07-24T02:25:52;18.30;99.90
16271;DHT22;8243;49.048;8.396;2023-07-24T02:28:18;18.30;99.90
16271;DHT22;8243;49.048;8.396;2023-07-24T02:30:44;18.30;99.90
16271;DHT22;8243;49.048;8.396;2023-07-24T02:33:11;18.40;99.90
16271;DHT22;8243;49.048;8.396;2023-07-24T02:35:42;18.50;99.90
16271;DHT22;8243;49.048;8.396;2023-07-24T02:38:07;18.50;99.90
16271;DHT22;8243;49.048;8.396;2023-07-24T02:40:34;18.50;99.90
16271;DHT22;8243;49.048;8.396;2023-07-24T02:42:59;18.40;99.90
16271;DHT22;8243;49.048;8.396;2023-07-24T02:45:25;18.40;99.90
16271;DHT22;8243;49.048;8.396;2023-07-24T02:47:50;18.40;99.90
16271;DHT22;8243;49.048;8.396;2023-07-24T02:50:16;18.40;99.90
16271;DHT22;8243;49.048;8.396;2023-07-24T02:52:41;18.40;99.90
16271;DHT22;8243;49.048;8.396;2023-07-24T02:55:07;18.30;99.90
16271;DHT22;8243;49.048;8.396;2023-07-24T02:57:33;18.30;99.90
16271;DHT22;8243;49.048;8.396;2023-07-24T02:59:58;18.40;99.90
16271;DHT22;8243;49.048;8.396;2023-07-24T03:02:24;18.30;99.90
16271;DHT22;8243;49.048;8.396;2023-07-24T03:04:50;18.40;99.90
16271;DHT22;8243;49.048;8.396;2023-07-24T03:07:15;18.40;99.90
16271;DHT22;8243;49.048;8.396;2023-07-24T03:09:41;18.40;99.90
16271;DHT22;8243;49.048;8.396;2023-07-24T03:12:07;18.30;99.90
16271;DHT22;8243;49.048;8.396;2023-07-24T03:14:32;18.30;99.90
16271;DHT22;8243;49.048;8.396;2023-07-24T03:16:58;18.30;99.90
16271;DHT22;8243;49.048;8.396;2023-07-24T03:19:23;18.30;99.90
16271;DHT22;8243;49.048;8.396;2023-07-24T03:21:49;18.40;99.90
16271;DHT22;8243;49.048;8.396;2023-07-24T03:24:14;18.40;99.90
16271;DHT22;8243;49.048;8.396;2023-07-24T03:26:40;18.40;99.90
16271;DHT22;8243;49.048;8.396;2023-07-24T03:29:05;18.40;99.90
16271;DHT22;8243;49.048;8.396;2023-07-24T03:31:31;18.40;99.90
16271;DHT22;8243;49.048;8.396;2023-07-24T03:33:57;18.40;99.90
16271;DHT22;8243;49.048;8.396;2023-07-24T03:36:22;18.40;99.90
16271;DHT22;8243;49.048;8.396;2023-07-24T03:38:48;18.40;99.90
16271;DHT22;8243;49.048;8.396;2023-07-24T03:41:13;18.40;99.90
16271;DHT22;8243;49.048;8.396;2023-07-24T03:43:39;18.40;99.90
16271;DHT22;8243;49.048;8.396;2023-07-24T03:46:04;18.40;99.90
16271;DHT22;8243;49.048;8.396;2023-07-24T03:48:30;18.50;99.90
16271;DHT22;8243;49.048;8.396;2023-07-24T03:50:59;18.50;99.90
16271;DHT22;8243;49.048;8.396;2023-07-24T03:53:28;18.40;99.90
16271;DHT22;8243;49.048;8.396;2023-07-24T03:55:54;18.40;99.90
16271;DHT22;8243;49.048;8.396;2023-07-24T03:58:19;18.50;99.90
16271;DHT22;8243;49.048;8.396;2023-07-24T04:00:46;18.40;99.90
16271;DHT22;8243;49.048;8.396;2023-07-24T04:03:12;18.40;99.90
16271;DHT22;8243;49.048;8.396;2023-07-24T04:05:37;18.40;99.90
16271;DHT22;8243;49.048;8.396;2023-07-24T04:08:03;18.40;99.90
16271;DHT22;8243;49.048;8.396;2023-07-24T04:10:29;18.60;99.90
16271;DHT22;8243;49.048;8.396;2023-07-24T04:12:56;18.70;99.90
16271;DHT22;8243;49.048;8.396;2023-07-24T04:15:22;18.70;99.90
16271;DHT22;8243;49.048;8.396;2023-07-24T04:17:48;18.80;99.90
16271;DHT22;8243;49.048;8.396;2023-07-24T04:20:13;18.80;99.90
16271;DHT22;8243;49.048;8.396;2023-07-24T04:22:39;18.90;99.90
16271;DHT22;8243;49.048;8.396;2023-07-24T04:25:05;18.90;99.90
16271;DHT22;8243;49.048;8.396;2023-07-24T04:27:31;19.00;99.90
16271;DHT22;8243;49.048;8.396;2023-07-24T04:29:56;19.10;99.90
16271;DHT22;8243;49.048;8.396;2023-07-24T04:32:22;19.10;99.90
16271;DHT22;8243;49.048;8.396;2023-07-24T04:34:47;19.10;99.90
16271;DHT22;8243;49.048;8.396;2023-07-24T04:37:13;19.20;99.90
16271;DHT22;8243;49.048;8.396;2023-07-24T04:39:39;19.20;99.90
16271;DHT22;8243;49.048;8.396;2023-07-24T04:42:05;19.30;99.90
16271;DHT22;8243;49.048;8.396;2023-07-24T04:44:30;19.30;99.90
16271;DHT22;8243;49.048;8.396;2023-07-24T04:46:57;19.30;99.90
16271;DHT22;8243;49.048;8.396;2023-07-24T04:49:23;19.20;99.90
16271;DHT22;8243;49.048;8.396;2023-07-24T04:51:50;19.30;99.90
16271;DHT22;8243;49.048;8.396;2023-07-24T04:54:16;19.30;99.90
16271;DHT22;8243;49.048;8.396;2023-07-24T04:56:41;19.30;99.90
16271;DHT22;8243;49.048;8.396;2023-07-24T04:59:07;19.30;99.90
16271;DHT22;8243;49.048;8.396;2023-07-24T05:01:32;19.40;99.90
16271;DHT22;8243;49.048;8.396;2023-07-24T05:03:58;19.40;99.90
16271;DHT22;8243;49.048;8.396;2023-07-24T05:06:24;19.50;99.90
16271;DHT22;8243;49.048;8.396;2023-07-24T05:08:49;19.50;99.90
16271;DHT22;8243;49.048;8.396;2023-07-24T05:11:15;19.60;99.90
16271;DHT22;8243;49.048;8.396;2023-07-24T05:13:40;19.70;99.90
16271;DHT22;8243;49.048;8.396;2023-07-24T05:16:06;19.70;99.90
16271;DHT22;8243;49.048;8.396;2023-07-24T05:18:56;19.70;99.90
16271;DHT22;8243;49.048;8.396;2023-07-24T05:21:22;19.80;99.90
16271;DHT22;8243;49.048;8.396;2023-07-24T05:23:47;19.80;99.90
16271;DHT22;8243;49.048;8.396;2023-07-24T05:26:13;19.90;99.90
16271;DHT22;8243;49.048;8.396;2023-07-24T05:28:39;20.00;99.90
16271;DHT22;8243;49.048;8.396;2023-07-24T05:31:05;20.00;99.90
16271;DHT22;8243;49.048;8.396;2023-07-24T05:33:33;20.00;99.90
16271;DHT22;8243;49.048;8.396;2023-07-24T05:36:00;20.10;99.90
16271;DHT22;8243;49.048;8.396;2023-07-24T05:38:26;20.10;99.90
16271;DHT22;8243;49.048;8.396;2023-07-24T05:40:59;20.20;99.90
16271;DHT22;8243;49.048;8.396;2023-07-24T05:43:25;20.10;99.90
16271;DHT22;8243;49.048;8.396;2023-07-24T05:45:52;20.30;99.90
16271;DHT22;8243;49.048;8.396;2023-07-24T05:48:18;20.30;99.90
16271;DHT22;8243;49.048;8.396;2023-07-24T05:50:43;20.30;99.90
16271;DHT22;8243;49.048;8.396;2023-07-24T05:53:09;20.30;99.90
16271;DHT22;8243;49.048;8.396;2023-07-24T05:55:35;20.40;99.90
16271;DHT22;8243;49.048;8.396;2023-07-24T05:58:00;20.50;99.90
16271;DHT22;8243;49.048;8.396;2023-07-24T06:00:26;20.40;99.90
16271;DHT22;8243;49.048;8.396;2023-07-24T06:02:53;20.50;99.90
16271;DHT22;8243;49.048;8.396;2023-07-24T06:05:18;20.60;99.90
16271;DHT22;8243;49.048;8.396;2023-07-24T06:07:48;20.70;99.90
16271;DHT22;8243;49.048;8.396;2023-07-24T06:10:13;20.80;99.90
16271;DHT22;8243;49.048;8.396;2023-07-24T06:12:39;20.80;99.90
16271;DHT22;8243;49.048;8.396;2023-07-24T06:15:05;20.80;99.90
16271;DHT22;8243;49.048;8.396;2023-07-24T06:17:31;20.80;98.60
16271;DHT22;8243;49.048;8.396;2023-07-24T06:19:57;20.90;98.80
16271;DHT22;8243;49.048;8.396;2023-07-24T06:22:23;21.00;97.10
16271;DHT22;8243;49.048;8.396;2023-07-24T06:24:48;21.10;95.50
16271;DHT22;8243;49.048;8.396;2023-07-24T06:27:14;21.10;94.80
16271;DHT22;8243;49.048;8.396;2023-07-24T06:29:40;21.20;93.80
16271;DHT22;8243;49.048;8.396;2023-07-24T06:32:06;21.30;92.40
16271;DHT22;8243;49.048;8.396;2023-07-24T06:34:32;21.50;90.40
16271;DHT22;8243;49.048;8.396;2023-07-24T06:36:58;21.80;81.00
16271;DHT22;8243;49.048;8.396;2023-07-24T06:39:23;22.10;76.40
16271;DHT22;8243;49.048;8.396;2023-07-24T06:41:51;22.40;71.00
16271;DHT22;8243;49.048;8.396;2023-07-24T06:44:16;22.50;67.60
16271;DHT22;8243;49.048;8.396;2023-07-24T06:46:42;22.40;65.30
16271;DHT22;8243;49.048;8.396;2023-07-24T06:49:08;22.50;62.70
16271;DHT22;8243;49.048;8.396;2023-07-24T06:51:33;22.30;61.00
16271;DHT22;8243;49.048;8.396;2023-07-24T06:53:59;22.20;60.10
16271;DHT22;8243;49.048;8.396;2023-07-24T06:56:24;22.20;60.00
16271;DHT22;8243;49.048;8.396;2023-07-24T06:58:50;22.10;59.40
16271;DHT22;8243;49.048;8.396;2023-07-24T07:01:15;22.10;59.70
16271;DHT22;8243;49.048;8.396;2023-07-24T07:03:41;22.20;58.90
16271;DHT22;8243;49.048;8.396;2023-07-24T07:06:07;22.20;58.10
16271;DHT22;8243;49.048;8.396;2023-07-24T07:08:34;22.20;57.80
16271;DHT22;8243;49.048;8.396;2023-07-24T07:11:01;22.20;59.70
16271;DHT22;8243;49.048;8.396;2023-07-24T07:13:27;22.20;66.10
16271;DHT22;8243;49.048;8.396;2023-07-24T07:15:53;22.10;67.70
16271;DHT22;8243;49.048;8.396;2023-07-24T07:18:18;21.90;69.30
16271;DHT22;8243;49.048;8.396;2023-07-24T07:20:52;21.80;70.10
16271;DHT22;8243;49.048;8.396;2023-07-24T07:23:18;21.80;70.30
16271;DHT22;8243;49.048;8.396;2023-07-24T07:25:44;21.70;71.10
16271;DHT22;8243;49.048;8.396;2023-07-24T07:28:16;21.70;71.10
16271;DHT22;8243;49.048;8.396;2023-07-24T07:30:45;21.80;71.20
16271;DHT22;8243;49.048;8.396;2023-07-24T07:33:13;21.70;72.70
16271;DHT22;8243;49.048;8.396;2023-07-24T07:35:38;21.60;82.80
16271;DHT22;8243;49.048;8.396;2023-07-24T07:38:04;21.50;91.80
16271;DHT22;8243;49.048;8.396;2023-07-24T07:40:30;21.40;94.50
16271;DHT22;8243;49.048;8.396;2023-07-24T07:42:56;21.20;99.90
16271;DHT22;8243;49.048;8.396;2023-07-24T07:45:23;20.90;99.90
16271;DHT22;8243;49.048;8.396;2023-07-24T07:47:49;20.80;99.90
16271;DHT22;8243;49.048;8.396;2023-07-24T07:50:14;20.50;99.90
16271;DHT22;8243;49.048;8.396;2023-07-24T07:52:40;20.40;99.90
16271;DHT22;8243;49.048;8.396;2023-07-24T07:55:06;20.20;99.90
16271;DHT22;8243;49.048;8.396;2023-07-24T07:57:35;20.10;99.90
16271;DHT22;8243;49.048;8.396;2023-07-24T08:00:04;20.20;99.90
16271;DHT22;8243;49.048;8.396;2023-07-24T08:02:31;20.30;99.90
16271;DHT22;8243;49.048;8.396;2023-07-24T08:04:57;20.30;99.90
16271;DHT22;8243;49.048;8.396;2023-07-24T08:07:23;20.40;99.90
16271;DHT22;8243;49.048;8.396;2023-07-24T08:09:49;20.40;99.90
16271;DHT22;8243;49.048;8.396;2023-07-24T08:12:14;20.40;99.90
16271;DHT22;8243;49.048;8.396;2023-07-24T08:14:40;20.50;99.90
16271;DHT22;8243;49.048;8.396;2023-07-24T08:17:06;20.60;99.90
16271;DHT22;8243;49.048;8.396;2023-07-24T08:19:31;20.80;99.90
16271;DHT22;8243;49.048;8.396;2023-07-24T08:21:57;21.00;99.90
16271;DHT22;8243;49.048;8.396;2023-07-24T08:24:22;21.20;99.90
16271;DHT22;8243;49.048;8.396;2023-07-24T08:26:48;21.40;99.90
16271;DHT22;8243;49.048;8.396;2023-07-24T08:29:13;21.50;99.90
16271;DHT22;8243;49.048;8.396;2023-07-24T08:31:39;21.80;99.90
16271;DHT22;8243;49.048;8.396;2023-07-24T08:34:05;21.80;99.90
16271;DHT22;8243;49.048;8.396;2023-07-24T08:36:31;21.80;99.90
16271;DHT22;8243;49.048;8.396;2023-07-24T08:38:57;21.90;99.90
16271;DHT22;8243;49.048;8.396;2023-07-24T08:41:23;22.10;99.90
16271;DHT22;8243;49.048;8.396;2023-07-24T08:43:48;22.40;99.90
16271;DHT22;8243;49.048;8.396;2023-07-24T08:46:17;22.70;99.90
16271;DHT22;8243;49.048;8.396;2023-07-24T08:48:43;23.70;99.90
16271;DHT22;8243;49.048;8.396;2023-07-24T08:51:11;24.80;97.80
16271;DHT22;8243;49.048;8.396;2023-07-24T08:53:41;25.70;85.90
16271;DHT22;8243;49.048;8.396;2023-07-24T08:56:08;26.50;73.30
16271;DHT22;8243;49.048;8.396;2023-07-24T08:58:35;27.00;65.20
16271;DHT22;8243;49.048;8.396;2023-07-24T09:01:02;27.70;56.40
16271;DHT22;8243;49.048;8.396;2023-07-24T09:03:28;28.30;48.30
16271;DHT22;8243;49.048;8.396;2023-07-24T09:05:55;28.20;44.60
16271;DHT22;8243;49.048;8.396;2023-07-24T09:10:56;27.70;42.50
16271;DHT22;8243;49.048;8.396;2023-07-24T09:13:21;27.80;38.90
16271;DHT22;8243;49.048;8.396;2023-07-24T09:15:47;26.70;39.70
16271;DHT22;8243;49.048;8.396;2023-07-24T09:18:13;26.10;43.10
16271;DHT22;8243;49.048;8.396;2023-07-24T09:20:40;25.70;47.20
16271;DHT22;8243;49.048;8.396;2023-07-24T09:23:06;25.20;49.50
16271;DHT22;8243;49.048;8.396;2023-07-24T09:25:34;25.00;52.60
16271;DHT22;8243;49.048;8.396;2023-07-24T09:28:00;25.00;53.60
16271;DHT22;8243;49.048;8.396;2023-07-24T09:30:25;24.90;55.50
16271;DHT22;8243;49.048;8.396;2023-07-24T09:32:55;24.90;57.50
16271;DHT22;8243;49.048;8.396;2023-07-24T09:35:21;25.10;56.20
16271;DHT22;8243;49.048;8.396;2023-07-24T09:38:11;24.90;56.70
16271;DHT22;8243;49.048;8.396;2023-07-24T09:40:44;25.10;56.40
16271;DHT22;8243;49.048;8.396;2023-07-24T09:43:24;25.20;56.30
16271;DHT22;8243;49.048;8.396;2023-07-24T09:45:51;25.00;55.70
16271;DHT22;8243;49.048;8.396;2023-07-24T09:48:19;24.80;57.20
16271;DHT22;8243;49.048;8.396;2023-07-24T09:50:47;24.40;58.70
16271;DHT22;8243;49.048;8.396;2023-07-24T09:55:58;23.80;63.50
16271;DHT22;8243;49.048;8.396;2023-07-24T09:58:25;23.70;68.70
16271;DHT22;8243;49.048;8.396;2023-07-24T10:00:52;23.50;71.70
16271;DHT22;8243;49.048;8.396;2023-07-24T10:03:19;23.30;73.60
16271;DHT22;8243;49.048;8.396;2023-07-24T10:05:47;23.20;77.20
16271;DHT22;8243;49.048;8.396;2023-07-24T10:08:14;23.10;79.20
16271;DHT22;8243;49.048;8.396;2023-07-24T10:10:40;23.10;82.60
16271;DHT22;8243;49.048;8.396;2023-07-24T10:13:08;22.90;84.70
16271;DHT22;8243;49.048;8.396;2023-07-24T10:15:36;22.80;89.20
16271;DHT22;8243;49.048;8.396;2023-07-24T10:18:04;22.70;91.90
16271;DHT22;8243;49.048;8.396;2023-07-24T10:20:37;22.60;94.90
16271;DHT22;8243;49.048;8.396;2023-07-24T10:23:05;22.60;96.40
16271;DHT22;8243;49.048;8.396;2023-07-24T10:25:38;22.60;97.90
16271;DHT22;8243;49.048;8.396;2023-07-24T10:28:10;22.60;99.90
16271;DHT22;8243;49.048;8.396;2023-07-24T10:30:40;22.50;99.90
16271;DHT22;8243;49.048;8.396;2023-07-24T10:33:11;22.50;99.90
16271;DHT22;8243;49.048;8.396;2023-07-24T10:35:51;22.40;99.90
16271;DHT22;8243;49.048;8.396;2023-07-24T10:38:17;22.40;99.90
16271;DHT22;8243;49.048;8.396;2023-07-24T10:40:44;22.30;99.90
16271;DHT22;8243;49.048;8.396;2023-07-24T10:43:12;22.20;99.90
16271;DHT22;8243;49.048;8.396;2023-07-24T10:45:46;22.10;99.90
16271;DHT22;8243;49.048;8.396;2023-07-24T10:48:25;22.10;99.90
16271;DHT22;8243;49.048;8.396;2023-07-24T10:50:51;22.20;99.90
16271;DHT22;8243;49.048;8.396;2023-07-24T10:53:18;22.20;99.90
16271;DHT22;8243;49.048;8.396;2023-07-24T10:55:46;22.20;99.90
16271;DHT22;8243;49.048;8.396;2023-07-24T10:58:15;22.30;99.90
16271;DHT22;8243;49.048;8.396;2023-07-24T11:00:42;22.30;99.90
16271;DHT22;8243;49.048;8.396;2023-07-24T11:03:11;22.30;99.90
16271;DHT22;8243;49.048;8.396;2023-07-24T11:05:44;22.50;99.90
16271;DHT22;8243;49.048;8.396;2023-07-24T11:08:17;22.50;99.90
16271;DHT22;8243;49.048;8.396;2023-07-24T11:10:48;22.60;99.90
16271;DHT22;8243;49.048;8.396;2023-07-24T11:13:19;22.60;99.90
16271;DHT22;8243;49.048;8.396;2023-07-24T11:15:46;22.60;99.90
16271;DHT22;8243;49.048;8.396;2023-07-24T11:18:11;22.80;99.90
16271;DHT22;8243;49.048;8.396;2023-07-24T11:20:46;22.90;99.90
16271;DHT22;8243;49.048;8.396;2023-07-24T11:23:12;22.90;99.90
16271;DHT22;8243;49.048;8.396;2023-07-24T11:25:39;23.10;96.50
16271;DHT22;8243;49.048;8.396;2023-07-24T11:28:06;23.30;95.00
16271;DHT22;8243;49.048;8.396;2023-07-24T11:30:32;23.70;92.00
16271;DHT22;8243;49.048;8.396;2023-07-24T11:33:01;24.20;89.20
16271;DHT22;8243;49.048;8.396;2023-07-24T11:35:43;24.80;83.70
16271;DHT22;8243;49.048;8.396;2023-07-24T11:38:09;25.00;74.00
16271;DHT22;8243;49.048;8.396;2023-07-24T11:40:40;25.00;71.00
16271;DHT22;8243;49.048;8.396;2023-07-24T11:43:19;25.20;68.10
16271;DHT22;8243;49.048;8.396;2023-07-24T11:45:46;25.00;64.40
16271;DHT22;8243;49.048;8.396;2023-07-24T11:48:14;25.20;62.50
16271;DHT22;8243;49.048;8.396;2023-07-24T11:50:51;25.20;62.00
16271;DHT22;8243;49.048;8.396;2023-07-24T11:53:31;25.40;57.30
16271;DHT22;8243;49.048;8.396;2023-07-24T11:55:58;25.40;56.20
16271;DHT22;8243;49.048;8.396;2023-07-24T11:58:28;25.70;51.70
16271;DHT22;8243;49.048;8.396;2023-07-24T12:00:54;26.00;49.00
16271;DHT22;8243;49.048;8.396;2023-07-24T12:03:21;26.00;48.20
16271;DHT22;8243;49.048;8.396;2023-07-24T12:05:48;25.80;45.10
16271;DHT22;8243;49.048;8.396;2023-07-24T12:08:14;25.60;43.80
16271;DHT22;8243;49.048;8.396;2023-07-24T12:10:40;25.40;43.30
16271;DHT22;8243;49.048;8.396;2023-07-24T12:13:06;25.20;43.50
16271;DHT22;8243;49.048;8.396;2023-07-24T12:15:32;25.30;43.50
16271;DHT22;8243;49.048;8.396;2023-07-24T12:17:59;25.70;41.30
16271;DHT22;8243;49.048;8.396;2023-07-24T12:20:26;26.30;38.70
16271;DHT22;8243;49.048;8.396;2023-07-24T12:22:53;26.50;33.10
16271;DHT22;8243;49.048;8.396;2023-07-24T12:25:38;26.40;31.80
16271;DHT22;8243;49.048;8.396;2023-07-24T12:28:11;26.10;31.60
16271;DHT22;8243;49.048;8.396;2023-07-24T12:30:37;26.10;31.60
16271;DHT22;8243;49.048;8.396;2023-07-24T12:33:02;26.40;30.10
16271;DHT22;8243;49.048;8.396;2023-07-24T12:35:28;26.10;29.50
16271;DHT22;8243;49.048;8.396;2023-07-24T12:37:54;26.30;30.20
16271;DHT22;8243;49.048;8.396;2023-07-24T12:40:25;26.50;29.60
16271;DHT22;8243;49.048;8.396;2023-07-24T12:42:51;26.60;28.30
16271;DHT22;8243;49.048;8.396;2023-07-24T12:45:16;26.90;26.30
16271;DHT22;8243;49.048;8.396;2023-07-24T12:47:42;26.50;24.60
16271;DHT22;8243;49.048;8.396;2023-07-24T12:50:08;26.40;24.60
16271;DHT22;8243;49.048;8.396;2023-07-24T12:52:33;26.30;23.50
16271;DHT22;8243;49.048;8.396;2023-07-24T12:54:59;26.50;23.00
16271;DHT22;8243;49.048;8.396;2023-07-24T12:57:24;26.50;23.00
16271;DHT22;8243;49.048;8.396;2023-07-24T12:59:51;26.60;21.30
16271;DHT22;8243;49.048;8.396;2023-07-24T13:02:17;26.60;21.60
16271;DHT22;8243;49.048;8.396;2023-07-24T13:04:42;26.90;20.60
16271;DHT22;8243;49.048;8.396;2023-07-24T13:07:08;26.90;19.80
16271;DHT22;8243;49.048;8.396;2023-07-24T13:09:35;26.90;19.10
16271;DHT22;8243;49.048;8.396;2023-07-24T13:12:00;26.70;19.20
16271;DHT22;8243;49.048;8.396;2023-07-24T13:14:26;26.80;18.80
16271;DHT22;8243;49.048;8.396;2023-07-24T13:16:51;27.00;19.10
16271;DHT22;8243;49.048;8.396;2023-07-24T13:19:18;27.10;17.90
16271;DHT22;8243;49.048;8.396;2023-07-24T13:21:43;27.00;18.70
16271;DHT22;8243;49.048;8.396;2023-07-24T13:24:12;26.90;17.80
16271;DHT22;8243;49.048;8.396;2023-07-24T13:26:37;26.80;18.40
16271;DHT22;8243;49.048;8.396;2023-07-24T13:29:03;26.90;18.80
16271;DHT22;8243;49.048;8.396;2023-07-24T13:31:30;26.90;17.60
16271;DHT22;8243;49.048;8.396;2023-07-24T13:33:56;26.60;18.10
16271;DHT22;8243;49.048;8.396;2023-07-24T13:36:22;26.60;17.90
16271;DHT22;8243;49.048;8.396;2023-07-24T13:38:47;26.40;18.40
16271;DHT22;8243;49.048;8.396;2023-07-24T13:41:13;26.60;19.00
16271;DHT22;8243;49.048;8.396;2023-07-24T13:43:38;26.70;18.00
16271;DHT22;8243;49.048;8.396;2023-07-24T13:46:04;26.80;17.90
16271;DHT22;8243;49.048;8.396;2023-07-24T13:48:30;26.90;17.40
16271;DHT22;8243;49.048;8.396;2023-07-24T13:50:56;26.70;17.10
16271;DHT22;8243;49.048;8.396;2023-07-24T13:53:22;26.50;17.40
16271;DHT22;8243;49.048;8.396;2023-07-24T13:55:48;26.30;18.10
16271;DHT22;8243;49.048;8.396;2023-07-24T13:58:14;26.30;18.60
16271;DHT22;8243;49.048;8.396;2023-07-24T14:00:40;26.60;18.60
16271;DHT22;8243;49.048;8.396;2023-07-24T14:03:06;26.90;18.10
16271;DHT22;8243;49.048;8.396;2023-07-24T14:05:33;26.80;17.60
16271;DHT22;8243;49.048;8.396;2023-07-24T14:07:58;26.60;18.10
16271;DHT22;8243;49.048;8.396;2023-07-24T14:10:24;26.60;18.00
16271;DHT22;8243;49.048;8.396;2023-07-24T14:12:49;26.80;17.90
16271;DHT22;8243;49.048;8.396;2023-07-24T14:15:15;26.80;18.00
16271;DHT22;8243;49.048;8.396;2023-07-24T14:17:40;26.80;18.10
16271;DHT22;8243;49.048;8.396;2023-07-24T14:20:06;27.00;17.30
16271;DHT22;8243;49.048;8.396;2023-07-24T14:22:32;26.90;17.10
16271;DHT22;8243;49.048;8.396;2023-07-24T14:24:58;26.90;17.30
16271;DHT22;8243;49.048;8.396;2023-07-24T14:27:24;26.90;16.80
16271;DHT22;8243;49.048;8.396;2023-07-24T14:29:50;26.60;17.20
16271;DHT22;8243;49.048;8.396;2023-07-24T14:32:15;26.40;17.80
16271;DHT22;8243;49.048;8.396;2023-07-24T14:34:42;26.30;18.80
16271;DHT22;8243;49.048;8.396;2023-07-24T14:37:08;26.40;18.90
16271;DHT22;8243;49.048;8.396;2023-07-24T14:39:33;26.40;19.30
16271;DHT22;8243;49.048;8.396;2023-07-24T14:41:59;26.30;19.90
16271;DHT22;8243;49.048;8.396;2023-07-24T14:44:25;26.00;20.80
16271;DHT22;8243;49.048;8.396;2023-07-24T14:46:51;25.70;21.90
16271;DHT22;8243;49.048;8.396;2023-07-24T14:49:16;25.60;23.20
16271;DHT22;8243;49.048;8.396;2023-07-24T14:51:42;25.50;24.20
16271;DHT22;8243;49.048;8.396;2023-07-24T14:54:07;25.20;25.60
16271;DHT22;8243;49.048;8.396;2023-07-24T14:56:33;24.90;27.90
16271;DHT22;8243;49.048;8.396;2023-07-24T14:58:59;24.80;29.40
16271;DHT22;8243;49.048;8.396;2023-07-24T15:01:24;24.70;32.90
16271;DHT22;8243;49.048;8.396;2023-07-24T15:03:53;24.40;42.60
16271;DHT22;8243;49.048;8.396;2023-07-24T15:06:18;23.80;80.30
16271;DHT22;8243;49.048;8.396;2023-07-24T15:08:44;22.50;99.90
16271;DHT22;8243;49.048;8.396;2023-07-24T15:11:09;21.90;99.90
16271;DHT22;8243;49.048;8.396;2023-07-24T15:13:35;21.70;99.90
16271;DHT22;8243;49.048;8.396;2023-07-24T15:16:01;21.60;99.90
16271;DHT22;8243;49.048;8.396;2023-07-24T15:18:26;21.50;99.90
16271;DHT22;8243;49.048;8.396;2023-07-24T15:20:52;21.40;99.90
16271;DHT22;8243;49.048;8.396;2023-07-24T15:23:18;21.40;99.90
16271;DHT22;8243;49.048;8.396;2023-07-24T15:25:44;21.30;99.90
16271;DHT22;8243;49.048;8.396;2023-07-24T15:28:10;21.30;99.90
16271;DHT22;8243;49.048;8.396;2023-07-24T15:30:37;21.40;99.90
16271;DHT22;8243;49.048;8.396;2023-07-24T15:33:03;21.40;99.90
16271;DHT22;8243;49.048;8.396;2023-07-24T15:35:28;21.40;99.90
16271;DHT22;8243;49.048;8.396;2023-07-24T15:37:54;21.50;99.90
16271;DHT22;8243;49.048;8.396;2023-07-24T15:40:19;21.80;99.90
16271;DHT22;8243;49.048;8.396;2023-07-24T15:42:52;22.00;99.90
16271;DHT22;8243;49.048;8.396;2023-07-24T15:45:43;22.40;99.90
16271;DHT22;8243;49.048;8.396;2023-07-24T15:48:08;22.70;99.90
16271;DHT22;8243;49.048;8.396;2023-07-24T15:50:34;22.90;99.90
16271;DHT22;8243;49.048;8.396;2023-07-24T15:52:59;22.90;99.90